sensor_id;sensor_type;location;lat;lon;timestamp;P1;durP1;ratioP1;P2;durP2;ratioP2
48317;SDS011;34127;47.412;9.730;2023-12-20T00:00:15;10.07;;;6.55;;
48317;SDS011;34127;47.412;9.730;2023-12-20T00:02:41;11.68;;;7.13;;
48317;SDS011;34127;47.412;9.730;2023-12-20T00:05:11;40.22;;;14.57;;
48317;SDS011;34127;47.412;9.730;2023-12-20T00:07:38;25.92;;;12.07;;
48317;SDS011;34127;47.412;9.730;2023-12-20T00:10:06;15.73;;;8.80;;
48317;SDS011;34127;47.412;9.730;2023-12-20T00:12:32;16.42;;;9.40;;
48317;SDS011;34127;47.412;9.730;2023-12-20T00:14:59;16.20;;;10.05;;
48317;SDS011;34127;47.412;9.730;2023-12-20T00:17:25;16.77;;;9.52;;
48317;SDS011;34127;47.412;9.730;2023-12-20T00:19:51;17.73;;;9.55;;
48317;SDS011;34127;47.412;9.730;2023-12-20T00:22:17;17.45;;;10.00;;
48317;SDS011;34127;47.412;9.730;2023-12-20T00:24:43;16.50;;;9.88;;
48317;SDS011;34127;47.412;9.730;2023-12-20T00:27:10;16.70;;;10.45;;
48317;SDS011;34127;47.412;9.730;2023-12-20T00:29:36;15.15;;;10.05;;
48317;SDS011;34127;47.412;9.730;2023-12-20T00:34:28;16.60;;;9.98;;
48317;SDS011;34127;47.412;9.730;2023-12-20T00:36:54;16.10;;;10.20;;
48317;SDS011;34127;47.412;9.730;2023-12-20T00:39:20;16.40;;;9.63;;
48317;SDS011;34127;47.412;9.730;2023-12-20T00:41:46;18.50;;;9.93;;
48317;SDS011;34127;47.412;9.730;2023-12-20T00:44:12;15.93;;;10.50;;
48317;SDS011;34127;47.412;9.730;2023-12-20T00:46:38;15.70;;;9.50;;
48317;SDS011;34127;47.412;9.730;2023-12-20T00:49:05;18.10;;;10.32;;
48317;SDS011;34127;47.412;9.730;2023-12-20T00:51:31;18.85;;;10.98;;
48317;SDS011;34127;47.412;9.730;2023-12-20T00:53:57;17.17;;;10.30;;
48317;SDS011;34127;47.412;9.730;2023-12-20T00:56:23;19.27;;;11.25;;
48317;SDS011;34127;47.412;9.730;2023-12-20T00:58:50;19.55;;;10.80;;
48317;SDS011;34127;47.412;9.730;2023-12-20T01:01:16;19.95;;;10.43;;
48317;SDS011;34127;47.412;9.730;2023-12-20T01:03:43;17.48;;;10.48;;
48317;SDS011;34127;47.412;9.730;2023-12-20T01:06:09;20.88;;;11.50;;
48317;SDS011;34127;47.412;9.730;2023-12-20T01:08:35;23.85;;;11.35;;
48317;SDS011;34127;47.412;9.730;2023-12-20T01:11:06;28.10;;;11.82;;
48317;SDS011;34127;47.412;9.730;2023-12-20T01:13:32;20.60;;;10.60;;
48317;SDS011;34127;47.412;9.730;2023-12-20T01:15:58;19.15;;;10.50;;
48317;SDS011;34127;47.412;9.730;2023-12-20T01:18:24;21.73;;;10.48;;
48317;SDS011;34127;47.412;9.730;2023-12-20T01:20:50;18.55;;;10.57;;
48317;SDS011;34127;47.412;9.730;2023-12-20T01:23:16;20.20;;;10.32;;
48317;SDS011;34127;47.412;9.730;2023-12-20T01:25:43;17.35;;;9.60;;
48317;SDS011;34127;47.412;9.730;2023-12-20T01:28:09;17.17;;;10.25;;
48317;SDS011;34127;47.412;9.730;2023-12-20T01:30:36;18.88;;;10.30;;
48317;SDS011;34127;47.412;9.730;2023-12-20T01:33:02;15.60;;;9.18;;
48317;SDS011;34127;47.412;9.730;2023-12-20T01:35:28;15.82;;;9.20;;
48317;SDS011;34127;47.412;9.730;2023-12-20T01:37:54;15.00;;;9.02;;
48317;SDS011;34127;47.412;9.730;2023-12-20T01:40:22;11.88;;;7.97;;
48317;SDS011;34127;47.412;9.730;2023-12-20T01:42:57;12.15;;;6.90;;
48317;SDS011;34127;47.412;9.730;2023-12-20T01:45:24;10.55;;;6.03;;
48317;SDS011;34127;47.412;9.730;2023-12-20T01:47:50;10.82;;;5.93;;
48317;SDS011;34127;47.412;9.730;2023-12-20T01:50:16;12.10;;;6.75;;
48317;SDS011;34127;47.412;9.730;2023-12-20T01:52:42;7.63;;;5.00;;
48317;SDS011;34127;47.412;9.730;2023-12-20T01:55:09;9.38;;;5.20;;
48317;SDS011;34127;47.412;9.730;2023-12-20T01:57:40;7.03;;;4.40;;
48317;SDS011;34127;47.412;9.730;2023-12-20T02:00:07;7.72;;;5.13;;
48317;SDS011;34127;47.412;9.730;2023-12-20T02:02:34;8.38;;;5.13;;
48317;SDS011;34127;47.412;9.730;2023-12-20T02:05:01;8.02;;;5.13;;
48317;SDS011;34127;47.412;9.730;2023-12-20T02:07:29;8.70;;;5.28;;
48317;SDS011;34127;47.412;9.730;2023-12-20T02:09:56;8.85;;;5.75;;
48317;SDS011;34127;47.412;9.730;2023-12-20T02:12:22;7.40;;;4.72;;
48317;SDS011;34127;47.412;9.730;2023-12-20T02:14:48;8.02;;;5.30;;
48317;SDS011;34127;47.412;9.730;2023-12-20T02:17:15;10.30;;;6.07;;
48317;SDS011;34127;47.412;9.730;2023-12-20T02:19:43;11.27;;;6.80;;
48317;SDS011;34127;47.412;9.730;2023-12-20T02:22:09;14.40;;;8.20;;
48317;SDS011;34127;47.412;9.730;2023-12-20T02:24:36;12.27;;;8.30;;
48317;SDS011;34127;47.412;9.730;2023-12-20T02:27:02;13.05;;;8.43;;
48317;SDS011;34127;47.412;9.730;2023-12-20T02:29:29;15.40;;;8.77;;
48317;SDS011;34127;47.412;9.730;2023-12-20T02:31:55;14.32;;;8.60;;
48317;SDS011;34127;47.412;9.730;2023-12-20T02:34:21;14.52;;;9.00;;
48317;SDS011;34127;47.412;9.730;2023-12-20T02:36:47;16.17;;;9.45;;
48317;SDS011;34127;47.412;9.730;2023-12-20T02:39:13;14.70;;;9.40;;
48317;SDS011;34127;47.412;9.730;2023-12-20T02:41:40;13.55;;;9.25;;
48317;SDS011;34127;47.412;9.730;2023-12-20T02:46:32;14.10;;;8.75;;
48317;SDS011;34127;47.412;9.730;2023-12-20T02:48:58;13.55;;;9.02;;
48317;SDS011;34127;47.412;9.730;2023-12-20T02:51:24;15.75;;;9.65;;
48317;SDS011;34127;47.412;9.730;2023-12-20T02:53:50;15.38;;;9.23;;
48317;SDS011;34127;47.412;9.730;2023-12-20T02:56:16;16.73;;;10.05;;
48317;SDS011;34127;47.412;9.730;2023-12-20T02:58:43;18.35;;;10.52;;
48317;SDS011;34127;47.412;9.730;2023-12-20T03:01:09;14.93;;;9.63;;
48317;SDS011;34127;47.412;9.730;2023-12-20T03:03:35;17.08;;;10.40;;
48317;SDS011;34127;47.412;9.730;2023-12-20T03:06:01;14.98;;;9.68;;
48317;SDS011;34127;47.412;9.730;2023-12-20T03:08:27;16.05;;;9.70;;
48317;SDS011;34127;47.412;9.730;2023-12-20T03:10:53;14.55;;;9.65;;
48317;SDS011;34127;47.412;9.730;2023-12-20T03:13:20;17.30;;;9.82;;
48317;SDS011;34127;47.412;9.730;2023-12-20T03:15:47;15.50;;;9.57;;
48317;SDS011;34127;47.412;9.730;2023-12-20T03:18:13;15.68;;;9.80;;
48317;SDS011;34127;47.412;9.730;2023-12-20T03:20:39;18.05;;;10.30;;
48317;SDS011;34127;47.412;9.730;2023-12-20T03:23:06;16.63;;;10.05;;
48317;SDS011;34127;47.412;9.730;2023-12-20T03:25:33;16.10;;;9.50;;
48317;SDS011;34127;47.412;9.730;2023-12-20T03:27:59;16.13;;;10.38;;
48317;SDS011;34127;47.412;9.730;2023-12-20T03:30:25;16.20;;;10.20;;
48317;SDS011;34127;47.412;9.730;2023-12-20T03:32:52;16.10;;;9.15;;
48317;SDS011;34127;47.412;9.730;2023-12-20T03:35:18;13.90;;;8.90;;
48317;SDS011;34127;47.412;9.730;2023-12-20T03:37:44;14.25;;;9.65;;
48317;SDS011;34127;47.412;9.730;2023-12-20T03:40:10;14.82;;;8.80;;
48317;SDS011;34127;47.412;9.730;2023-12-20T03:42:36;14.57;;;8.82;;
48317;SDS011;34127;47.412;9.730;2023-12-20T03:45:02;16.45;;;9.32;;
48317;SDS011;34127;47.412;9.730;2023-12-20T03:47:29;12.45;;;8.30;;
48317;SDS011;34127;47.412;9.730;2023-12-20T03:49:55;15.30;;;8.32;;
48317;SDS011;34127;47.412;9.730;2023-12-20T03:52:21;16.80;;;8.32;;
48317;SDS011;34127;47.412;9.730;2023-12-20T03:54:47;16.15;;;8.85;;
48317;SDS011;34127;47.412;9.730;2023-12-20T03:57:13;12.45;;;7.93;;
48317;SDS011;34127;47.412;9.730;2023-12-20T03:59:39;15.55;;;8.80;;
48317;SDS011;34127;47.412;9.730;2023-12-20T04:02:05;15.27;;;8.85;;
48317;SDS011;34127;47.412;9.730;2023-12-20T04:04:32;12.73;;;8.48;;
48317;SDS011;34127;47.412;9.730;2023-12-20T04:06:58;13.80;;;9.02;;
48317;SDS011;34127;47.412;9.730;2023-12-20T04:09:24;15.48;;;8.90;;
48317;SDS011;34127;47.412;9.730;2023-12-20T04:11:50;12.98;;;8.32;;
48317;SDS011;34127;47.412;9.730;2023-12-20T04:14:16;13.13;;;8.30;;
48317;SDS011;34127;47.412;9.730;2023-12-20T04:16:42;13.43;;;9.10;;
48317;SDS011;34127;47.412;9.730;2023-12-20T04:19:08;12.35;;;7.88;;
48317;SDS011;34127;47.412;9.730;2023-12-20T04:21:34;16.33;;;8.65;;
48317;SDS011;34127;47.412;9.730;2023-12-20T04:24:01;12.68;;;7.90;;
48317;SDS011;34127;47.412;9.730;2023-12-20T04:26:27;13.57;;;7.90;;
48317;SDS011;34127;47.412;9.730;2023-12-20T04:28:54;12.30;;;6.78;;
48317;SDS011;34127;47.412;9.730;2023-12-20T04:31:20;9.93;;;6.50;;
48317;SDS011;34127;47.412;9.730;2023-12-20T04:33:46;12.75;;;6.22;;
48317;SDS011;34127;47.412;9.730;2023-12-20T04:36:12;9.73;;;6.15;;
48317;SDS011;34127;47.412;9.730;2023-12-20T04:38:39;10.70;;;5.90;;
48317;SDS011;34127;47.412;9.730;2023-12-20T04:41:05;11.30;;;5.78;;
48317;SDS011;34127;47.412;9.730;2023-12-20T04:43:31;7.85;;;4.70;;
48317;SDS011;34127;47.412;9.730;2023-12-20T04:45:57;9.43;;;5.40;;
48317;SDS011;34127;47.412;9.730;2023-12-20T04:48:24;9.25;;;5.53;;
48317;SDS011;34127;47.412;9.730;2023-12-20T04:53:16;8.45;;;4.70;;
48317;SDS011;34127;47.412;9.730;2023-12-20T04:55:42;7.00;;;4.53;;
48317;SDS011;34127;47.412;9.730;2023-12-20T04:58:08;7.60;;;5.05;;
48317;SDS011;34127;47.412;9.730;2023-12-20T05:00:34;11.18;;;6.72;;
48317;SDS011;34127;47.412;9.730;2023-12-20T05:05:26;10.43;;;5.68;;
48317;SDS011;34127;47.412;9.730;2023-12-20T05:07:53;10.25;;;7.05;;
48317;SDS011;34127;47.412;9.730;2023-12-20T05:10:19;14.18;;;7.18;;
48317;SDS011;34127;47.412;9.730;2023-12-20T05:12:45;12.77;;;6.50;;
48317;SDS011;34127;47.412;9.730;2023-12-20T05:15:11;10.85;;;6.90;;
48317;SDS011;34127;47.412;9.730;2023-12-20T05:17:37;13.00;;;7.45;;
48317;SDS011;34127;47.412;9.730;2023-12-20T05:20:04;11.70;;;7.00;;
48317;SDS011;34127;47.412;9.730;2023-12-20T05:22:30;14.10;;;7.72;;
48317;SDS011;34127;47.412;9.730;2023-12-20T05:24:56;15.95;;;8.55;;
48317;SDS011;34127;47.412;9.730;2023-12-20T05:27:22;13.10;;;8.48;;
48317;SDS011;34127;47.412;9.730;2023-12-20T05:29:48;17.02;;;9.70;;
48317;SDS011;34127;47.412;9.730;2023-12-20T05:32:15;16.65;;;9.63;;
48317;SDS011;34127;47.412;9.730;2023-12-20T05:34:41;19.80;;;11.77;;
48317;SDS011;34127;47.412;9.730;2023-12-20T05:37:07;18.90;;;11.13;;
48317;SDS011;34127;47.412;9.730;2023-12-20T05:39:34;19.00;;;11.20;;
48317;SDS011;34127;47.412;9.730;2023-12-20T05:42:00;22.98;;;11.02;;
48317;SDS011;34127;47.412;9.730;2023-12-20T05:44:26;18.88;;;11.45;;
48317;SDS011;34127;47.412;9.730;2023-12-20T05:46:52;16.90;;;10.70;;
48317;SDS011;34127;47.412;9.730;2023-12-20T05:49:18;19.10;;;11.30;;
48317;SDS011;34127;47.412;9.730;2023-12-20T05:51:44;17.92;;;11.20;;
48317;SDS011;34127;47.412;9.730;2023-12-20T05:54:11;17.70;;;11.07;;
48317;SDS011;34127;47.412;9.730;2023-12-20T05:56:37;16.20;;;10.80;;
48317;SDS011;34127;47.412;9.730;2023-12-20T05:59:03;20.05;;;11.57;;
48317;SDS011;34127;47.412;9.730;2023-12-20T06:01:29;26.38;;;13.25;;
48317;SDS011;34127;47.412;9.730;2023-12-20T06:03:55;29.17;;;14.32;;
48317;SDS011;34127;47.412;9.730;2023-12-20T06:06:22;24.30;;;13.63;;
48317;SDS011;34127;47.412;9.730;2023-12-20T06:08:48;27.88;;;13.27;;
48317;SDS011;34127;47.412;9.730;2023-12-20T06:11:14;26.75;;;14.23;;
48317;SDS011;34127;47.412;9.730;2023-12-20T06:13:40;13.32;;;8.52;;
48317;SDS011;34127;47.412;9.730;2023-12-20T06:16:07;18.70;;;9.43;;
48317;SDS011;34127;47.412;9.730;2023-12-20T06:18:33;11.60;;;7.43;;
48317;SDS011;34127;47.412;9.730;2023-12-20T06:20:59;15.40;;;8.65;;
48317;SDS011;34127;47.412;9.730;2023-12-20T06:23:25;19.33;;;9.98;;
48317;SDS011;34127;47.412;9.730;2023-12-20T06:25:53;16.48;;;9.30;;
48317;SDS011;34127;47.412;9.730;2023-12-20T06:28:22;17.15;;;8.00;;
48317;SDS011;34127;47.412;9.730;2023-12-20T06:31:01;12.63;;;7.22;;
48317;SDS011;34127;47.412;9.730;2023-12-20T06:33:35;14.02;;;6.20;;
48317;SDS011;34127;47.412;9.730;2023-12-20T06:36:18;11.75;;;6.05;;
48317;SDS011;34127;47.412;9.730;2023-12-20T06:38:50;10.98;;;5.95;;
48317;SDS011;34127;47.412;9.730;2023-12-20T06:41:26;10.27;;;5.95;;
48317;SDS011;34127;47.412;9.730;2023-12-20T06:44:08;13.30;;;6.85;;
48317;SDS011;34127;47.412;9.730;2023-12-20T06:46:44;11.02;;;6.15;;
48317;SDS011;34127;47.412;9.730;2023-12-20T06:49:44;11.18;;;5.47;;
48317;SDS011;34127;47.412;9.730;2023-12-20T06:52:20;11.73;;;6.15;;
48317;SDS011;34127;47.412;9.730;2023-12-20T06:54:56;9.15;;;5.28;;
48317;SDS011;34127;47.412;9.730;2023-12-20T06:57:29;7.10;;;4.20;;
48317;SDS011;34127;47.412;9.730;2023-12-20T07:00:05;9.18;;;4.45;;
48317;SDS011;34127;47.412;9.730;2023-12-20T07:02:43;7.75;;;4.22;;
48317;SDS011;34127;47.412;9.730;2023-12-20T07:05:18;8.35;;;4.22;;
48317;SDS011;34127;47.412;9.730;2023-12-20T07:07:55;7.03;;;3.70;;
48317;SDS011;34127;47.412;9.730;2023-12-20T07:10:33;5.88;;;3.70;;
48317;SDS011;34127;47.412;9.730;2023-12-20T07:13:08;8.90;;;4.10;;
48317;SDS011;34127;47.412;9.730;2023-12-20T07:25:49;6.20;;;3.22;;
48317;SDS011;34127;47.412;9.730;2023-12-20T07:28:35;4.38;;;2.47;;
48317;SDS011;34127;47.412;9.730;2023-12-20T07:31:08;4.20;;;2.30;;
48317;SDS011;34127;47.412;9.730;2023-12-20T07:33:44;4.00;;;2.25;;
48317;SDS011;34127;47.412;9.730;2023-12-20T07:36:20;8.60;;;4.22;;
48317;SDS011;34127;47.412;9.730;2023-12-20T07:39:02;6.88;;;2.88;;
48317;SDS011;34127;47.412;9.730;2023-12-20T07:42:20;6.60;;;3.30;;
48317;SDS011;34127;47.412;9.730;2023-12-20T07:45:01;5.28;;;2.15;;
48317;SDS011;34127;47.412;9.730;2023-12-20T07:47:34;4.22;;;2.20;;
48317;SDS011;34127;47.412;9.730;2023-12-20T07:50:16;4.57;;;2.20;;
48317;SDS011;34127;47.412;9.730;2023-12-20T07:52:45;4.68;;;2.25;;
48317;SDS011;34127;47.412;9.730;2023-12-20T07:55:18;6.45;;;2.28;;
48317;SDS011;34127;47.412;9.730;2023-12-20T08:04:34;4.50;;;2.05;;
48317;SDS011;34127;47.412;9.730;2023-12-20T08:07:01;6.53;;;3.05;;
48317;SDS011;34127;47.412;9.730;2023-12-20T08:09:30;8.07;;;4.40;;
48317;SDS011;34127;47.412;9.730;2023-12-20T08:12:01;4.90;;;2.70;;
48317;SDS011;34127;47.412;9.730;2023-12-20T08:14:42;3.95;;;2.28;;
48317;SDS011;34127;47.412;9.730;2023-12-20T08:17:18;4.65;;;2.17;;
48317;SDS011;34127;47.412;9.730;2023-12-20T08:19:50;3.55;;;2.25;;
48317;SDS011;34127;47.412;9.730;2023-12-20T08:22:17;7.50;;;3.58;;
48317;SDS011;34127;47.412;9.730;2023-12-20T08:24:57;9.10;;;3.38;;
48317;SDS011;34127;47.412;9.730;2023-12-20T08:27:33;3.78;;;1.90;;
48317;SDS011;34127;47.412;9.730;2023-12-20T08:30:25;4.78;;;1.67;;
48317;SDS011;34127;47.412;9.730;2023-12-20T08:32:54;7.50;;;3.28;;
48317;SDS011;34127;47.412;9.730;2023-12-20T08:35:33;9.53;;;4.93;;
48317;SDS011;34127;47.412;9.730;2023-12-20T08:38:14;6.13;;;2.70;;
48317;SDS011;34127;47.412;9.730;2023-12-20T08:40:54;18.50;;;8.65;;
48317;SDS011;34127;47.412;9.730;2023-12-20T08:46:05;7.85;;;4.43;;
48317;SDS011;34127;47.412;9.730;2023-12-20T08:48:35;6.93;;;3.67;;
48317;SDS011;34127;47.412;9.730;2023-12-20T08:51:07;6.05;;;3.35;;
48317;SDS011;34127;47.412;9.730;2023-12-20T08:53:55;6.30;;;3.78;;
48317;SDS011;34127;47.412;9.730;2023-12-20T08:56:29;8.00;;;3.90;;
48317;SDS011;34127;47.412;9.730;2023-12-20T08:59:01;5.85;;;3.28;;
48317;SDS011;34127;47.412;9.730;2023-12-20T09:02:04;8.90;;;3.22;;
48317;SDS011;34127;47.412;9.730;2023-12-20T09:04:38;7.72;;;3.53;;
48317;SDS011;34127;47.412;9.730;2023-12-20T09:07:25;6.82;;;3.90;;
48317;SDS011;34127;47.412;9.730;2023-12-20T09:10:37;8.38;;;4.15;;
48317;SDS011;34127;47.412;9.730;2023-12-20T09:13:35;5.82;;;3.55;;
48317;SDS011;34127;47.412;9.730;2023-12-20T09:16:21;5.32;;;2.75;;
48317;SDS011;34127;47.412;9.730;2023-12-20T09:19:01;5.70;;;2.90;;
48317;SDS011;34127;47.412;9.730;2023-12-20T09:22:03;4.47;;;2.13;;
48317;SDS011;34127;47.412;9.730;2023-12-20T09:24:47;3.30;;;1.73;;
48317;SDS011;34127;47.412;9.730;2023-12-20T09:27:30;8.05;;;2.85;;
48317;SDS011;34127;47.412;9.730;2023-12-20T09:30:21;4.68;;;1.90;;
48317;SDS011;34127;47.412;9.730;2023-12-20T09:36:43;5.20;;;1.90;;
48317;SDS011;34127;47.412;9.730;2023-12-20T09:40:01;2.85;;;1.50;;
48317;SDS011;34127;47.412;9.730;2023-12-20T09:46:20;9.35;;;5.10;;
48317;SDS011;34127;47.412;9.730;2023-12-20T09:49:10;14.35;;;7.75;;
48317;SDS011;34127;47.412;9.730;2023-12-20T09:51:48;15.95;;;8.25;;
48317;SDS011;34127;47.412;9.730;2023-12-20T09:54:17;12.98;;;8.18;;
48317;SDS011;34127;47.412;9.730;2023-12-20T09:56:47;13.77;;;8.98;;
48317;SDS011;34127;47.412;9.730;2023-12-20T09:59:32;16.08;;;9.38;;
48317;SDS011;34127;47.412;9.730;2023-12-20T10:02:04;18.90;;;9.77;;
48317;SDS011;34127;47.412;9.730;2023-12-20T10:04:36;19.17;;;10.10;;
48317;SDS011;34127;47.412;9.730;2023-12-20T10:07:15;18.50;;;9.90;;
48317;SDS011;34127;47.412;9.730;2023-12-20T10:09:48;19.13;;;11.27;;
48317;SDS011;34127;47.412;9.730;2023-12-20T10:12:20;18.52;;;10.82;;
48317;SDS011;34127;47.412;9.730;2023-12-20T10:14:53;23.48;;;10.98;;
48317;SDS011;34127;47.412;9.730;2023-12-20T10:17:23;18.98;;;11.73;;
48317;SDS011;34127;47.412;9.730;2023-12-20T10:19:53;19.50;;;11.40;;
48317;SDS011;34127;47.412;9.730;2023-12-20T10:22:34;17.65;;;11.10;;
48317;SDS011;34127;47.412;9.730;2023-12-20T10:25:07;24.20;;;12.60;;
48317;SDS011;34127;47.412;9.730;2023-12-20T10:27:46;24.85;;;14.80;;
48317;SDS011;34127;47.412;9.730;2023-12-20T10:30:15;22.02;;;13.15;;
48317;SDS011;34127;47.412;9.730;2023-12-20T10:32:56;20.88;;;13.10;;
48317;SDS011;34127;47.412;9.730;2023-12-20T10:35:30;22.45;;;11.68;;
48317;SDS011;34127;47.412;9.730;2023-12-20T10:38:05;17.65;;;12.43;;
48317;SDS011;34127;47.412;9.730;2023-12-20T10:40:42;23.05;;;12.95;;
48317;SDS011;34127;47.412;9.730;2023-12-20T10:43:14;22.42;;;11.63;;
48317;SDS011;34127;47.412;9.730;2023-12-20T10:45:51;20.60;;;11.75;;
48317;SDS011;34127;47.412;9.730;2023-12-20T10:48:35;19.10;;;11.13;;
48317;SDS011;34127;47.412;9.730;2023-12-20T10:51:09;22.52;;;12.27;;
48317;SDS011;34127;47.412;9.730;2023-12-20T10:53:46;20.25;;;11.68;;
48317;SDS011;34127;47.412;9.730;2023-12-20T10:56:25;23.70;;;12.60;;
48317;SDS011;34127;47.412;9.730;2023-12-20T10:59:03;21.73;;;11.95;;
48317;SDS011;34127;47.412;9.730;2023-12-20T11:01:38;17.77;;;10.85;;
48317;SDS011;34127;47.412;9.730;2023-12-20T11:04:10;20.70;;;10.95;;
48317;SDS011;34127;47.412;9.730;2023-12-20T11:06:52;17.77;;;11.07;;
48317;SDS011;34127;47.412;9.730;2023-12-20T11:09:38;16.30;;;9.32;;
48317;SDS011;34127;47.412;9.730;2023-12-20T11:12:23;16.25;;;7.60;;
48317;SDS011;34127;47.412;9.730;2023-12-20T11:14:55;14.30;;;7.20;;
48317;SDS011;34127;47.412;9.730;2023-12-20T11:17:33;14.75;;;8.32;;
48317;SDS011;34127;47.412;9.730;2023-12-20T11:20:08;14.45;;;9.18;;
48317;SDS011;34127;47.412;9.730;2023-12-20T11:22:37;16.23;;;9.98;;
48317;SDS011;34127;47.412;9.730;2023-12-20T11:25:10;15.63;;;9.02;;
48317;SDS011;34127;47.412;9.730;2023-12-20T11:28:29;18.38;;;9.23;;
48317;SDS011;34127;47.412;9.730;2023-12-20T11:30:57;17.92;;;11.43;;
48317;SDS011;34127;47.412;9.730;2023-12-20T11:34:12;24.92;;;13.98;;
48317;SDS011;34127;47.412;9.730;2023-12-20T11:37:20;22.60;;;13.57;;
48317;SDS011;34127;47.412;9.730;2023-12-20T11:40:20;24.83;;;14.02;;
48317;SDS011;34127;47.412;9.730;2023-12-20T11:43:36;21.55;;;12.43;;
48317;SDS011;34127;47.412;9.730;2023-12-20T11:46:16;22.85;;;14.23;;
48317;SDS011;34127;47.412;9.730;2023-12-20T11:49:02;22.23;;;12.85;;
48317;SDS011;34127;47.412;9.730;2023-12-20T11:51:40;20.23;;;12.05;;
48317;SDS011;34127;47.412;9.730;2023-12-20T11:54:13;19.35;;;12.02;;
48317;SDS011;34127;47.412;9.730;2023-12-20T11:56:58;17.30;;;10.98;;
48317;SDS011;34127;47.412;9.730;2023-12-20T11:59:57;16.35;;;11.85;;
48317;SDS011;34127;47.412;9.730;2023-12-20T12:02:32;18.98;;;11.82;;
48317;SDS011;34127;47.412;9.730;2023-12-20T12:05:17;20.23;;;12.27;;
48317;SDS011;34127;47.412;9.730;2023-12-20T12:07:53;19.80;;;12.13;;
48317;SDS011;34127;47.412;9.730;2023-12-20T12:10:28;19.38;;;10.60;;
48317;SDS011;34127;47.412;9.730;2023-12-20T12:13:04;21.83;;;10.98;;
48317;SDS011;34127;47.412;9.730;2023-12-20T12:15:40;15.35;;;8.32;;
48317;SDS011;34127;47.412;9.730;2023-12-20T12:18:18;15.38;;;8.15;;
48317;SDS011;34127;47.412;9.730;2023-12-20T12:20:59;12.20;;;7.72;;
48317;SDS011;34127;47.412;9.730;2023-12-20T12:26:36;9.35;;;6.25;;
48317;SDS011;34127;47.412;9.730;2023-12-20T12:29:10;11.80;;;7.18;;
48317;SDS011;34127;47.412;9.730;2023-12-20T12:31:45;11.93;;;6.88;;
48317;SDS011;34127;47.412;9.730;2023-12-20T12:34:28;10.02;;;5.35;;
48317;SDS011;34127;47.412;9.730;2023-12-20T12:36:56;9.63;;;5.43;;
48317;SDS011;34127;47.412;9.730;2023-12-20T12:39:23;10.68;;;5.85;;
48317;SDS011;34127;47.412;9.730;2023-12-20T12:41:51;10.05;;;5.93;;
48317;SDS011;34127;47.412;9.730;2023-12-20T12:44:18;8.65;;;5.53;;
48317;SDS011;34127;47.412;9.730;2023-12-20T12:46:52;11.13;;;6.07;;
48317;SDS011;34127;47.412;9.730;2023-12-20T12:49:24;10.75;;;6.10;;
48317;SDS011;34127;47.412;9.730;2023-12-20T12:51:50;10.57;;;6.20;;
48317;SDS011;34127;47.412;9.730;2023-12-20T12:54:20;9.55;;;6.10;;
48317;SDS011;34127;47.412;9.730;2023-12-20T12:56:52;8.13;;;5.30;;
48317;SDS011;34127;47.412;9.730;2023-12-20T12:59:21;7.05;;;4.65;;
48317;SDS011;34127;47.412;9.730;2023-12-20T13:04:24;9.93;;;4.90;;
48317;SDS011;34127;47.412;9.730;2023-12-20T13:06:55;10.27;;;4.90;;
48317;SDS011;34127;47.412;9.730;2023-12-20T13:09:30;9.23;;;5.03;;
48317;SDS011;34127;47.412;9.730;2023-12-20T13:11:59;10.40;;;5.00;;
48317;SDS011;34127;47.412;9.730;2023-12-20T13:14:33;7.47;;;4.70;;
48317;SDS011;34127;47.412;9.730;2023-12-20T13:17:04;13.60;;;5.05;;
48317;SDS011;34127;47.412;9.730;2023-12-20T13:19:34;7.65;;;4.53;;
48317;SDS011;34127;47.412;9.730;2023-12-20T13:22:06;8.02;;;4.55;;
48317;SDS011;34127;47.412;9.730;2023-12-20T13:24:37;14.98;;;9.13;;
48317;SDS011;34127;47.412;9.730;2023-12-20T13:27:05;12.48;;;6.05;;
48317;SDS011;34127;47.412;9.730;2023-12-20T13:29:34;9.70;;;5.90;;
48317;SDS011;34127;47.412;9.730;2023-12-20T13:32:09;12.02;;;7.40;;
48317;SDS011;34127;47.412;9.730;2023-12-20T13:34:40;7.38;;;4.55;;
48317;SDS011;34127;47.412;9.730;2023-12-20T13:37:07;4.18;;;2.60;;
48317;SDS011;34127;47.412;9.730;2023-12-20T13:39:33;4.93;;;2.58;;
48317;SDS011;34127;47.412;9.730;2023-12-20T13:42:02;4.97;;;2.38;;
48317;SDS011;34127;47.412;9.730;2023-12-20T13:44:36;6.45;;;2.20;;
48317;SDS011;34127;47.412;9.730;2023-12-20T13:47:05;4.80;;;2.03;;
48317;SDS011;34127;47.412;9.730;2023-12-20T13:49:33;6.82;;;2.30;;
48317;SDS011;34127;47.412;9.730;2023-12-20T13:52:00;3.75;;;2.17;;
48317;SDS011;34127;47.412;9.730;2023-12-20T13:54:29;4.22;;;2.30;;
48317;SDS011;34127;47.412;9.730;2023-12-20T13:56:56;3.85;;;2.40;;
48317;SDS011;34127;47.412;9.730;2023-12-20T13:59:24;4.93;;;2.03;;
48317;SDS011;34127;47.412;9.730;2023-12-20T14:01:51;5.45;;;2.78;;
48317;SDS011;34127;47.412;9.730;2023-12-20T14:04:18;3.35;;;1.90;;
48317;SDS011;34127;47.412;9.730;2023-12-20T14:06:45;5.10;;;2.53;;
48317;SDS011;34127;47.412;9.730;2023-12-20T14:09:15;4.88;;;2.88;;
48317;SDS011;34127;47.412;9.730;2023-12-20T14:11:43;4.35;;;2.55;;
48317;SDS011;34127;47.412;9.730;2023-12-20T14:14:14;3.50;;;1.90;;
48317;SDS011;34127;47.412;9.730;2023-12-20T14:16:51;4.43;;;2.40;;
48317;SDS011;34127;47.412;9.730;2023-12-20T14:19:27;4.10;;;2.50;;
48317;SDS011;34127;47.412;9.730;2023-12-20T14:21:58;3.17;;;2.35;;
48317;SDS011;34127;47.412;9.730;2023-12-20T14:24:30;3.85;;;2.17;;
48317;SDS011;34127;47.412;9.730;2023-12-20T14:26:57;3.50;;;2.00;;
48317;SDS011;34127;47.412;9.730;2023-12-20T14:29:30;4.60;;;2.45;;
48317;SDS011;34127;47.412;9.730;2023-12-20T14:31:56;4.72;;;2.60;;
48317;SDS011;34127;47.412;9.730;2023-12-20T14:34:24;3.92;;;2.40;;
48317;SDS011;34127;47.412;9.730;2023-12-20T14:36:50;4.47;;;2.28;;
48317;SDS011;34127;47.412;9.730;2023-12-20T14:39:17;3.90;;;2.22;;
48317;SDS011;34127;47.412;9.730;2023-12-20T14:41:43;4.22;;;2.40;;
48317;SDS011;34127;47.412;9.730;2023-12-20T14:44:10;3.50;;;2.20;;
48317;SDS011;34127;47.412;9.730;2023-12-20T14:46:36;4.25;;;2.30;;
48317;SDS011;34127;47.412;9.730;2023-12-20T14:49:03;3.97;;;2.25;;
48317;SDS011;34127;47.412;9.730;2023-12-20T14:51:29;3.60;;;2.20;;
48317;SDS011;34127;47.412;9.730;2023-12-20T14:53:55;4.03;;;2.20;;
48317;SDS011;34127;47.412;9.730;2023-12-20T14:56:22;4.97;;;2.20;;
48317;SDS011;34127;47.412;9.730;2023-12-20T14:58:49;3.60;;;2.10;;
48317;SDS011;34127;47.412;9.730;2023-12-20T15:03:42;4.25;;;2.38;;
48317;SDS011;34127;47.412;9.730;2023-12-20T15:06:08;4.40;;;2.47;;
48317;SDS011;34127;47.412;9.730;2023-12-20T15:08:36;4.75;;;2.40;;
48317;SDS011;34127;47.412;9.730;2023-12-20T15:11:02;3.50;;;2.00;;
48317;SDS011;34127;47.412;9.730;2023-12-20T15:13:28;4.50;;;2.00;;
48317;SDS011;34127;47.412;9.730;2023-12-20T15:15:56;3.80;;;2.65;;
48317;SDS011;34127;47.412;9.730;2023-12-20T15:20:48;6.13;;;3.50;;
48317;SDS011;34127;47.412;9.730;2023-12-20T15:23:15;6.18;;;3.13;;
48317;SDS011;34127;47.412;9.730;2023-12-20T15:25:41;3.95;;;2.33;;
48317;SDS011;34127;47.412;9.730;2023-12-20T15:28:08;4.78;;;3.00;;
48317;SDS011;34127;47.412;9.730;2023-12-20T15:30:34;4.68;;;2.00;;
48317;SDS011;34127;47.412;9.730;2023-12-20T15:33:01;4.63;;;2.00;;
48317;SDS011;34127;47.412;9.730;2023-12-20T15:35:28;4.32;;;2.40;;
48317;SDS011;34127;47.412;9.730;2023-12-20T15:37:55;4.63;;;2.20;;
48317;SDS011;34127;47.412;9.730;2023-12-20T15:40:22;4.90;;;2.22;;
48317;SDS011;34127;47.412;9.730;2023-12-20T15:42:48;4.00;;;2.30;;
48317;SDS011;34127;47.412;9.730;2023-12-20T15:45:14;4.18;;;2.20;;
48317;SDS011;34127;47.412;9.730;2023-12-20T15:47:40;4.53;;;2.20;;